Araijuku, Japan

9:52 PM JST on 四月 27, 2017 (GMT +0900)
大田区 | | Change Station

高度 0 ft 35.58 °N, 139.71 °E | Updated 6 minutes ago

だいたい曇
だいたい曇
57.4 °F
体感気温 57.4 °F
0.0
風 変数 風 から
Gusts 1.9 Mph

今日
高い -- | 低 -- °F
--% 降水確率
昨日
高い -- | 低 -- °F
Precip. -- インチ
気圧 29.74 インチ
視程 6.2 マイル
わずか 2000 ft
露点温度 47 °F
湿度 69%
降水 0.14 インチ
積雪深 利用不可。
4:54 AM 6:23 PM
新月, 2% visible
METAR RJTT 271230Z 20009KT 9999 FEW020 BKN/// 14/08 Q1007 NOSIG RMK 1CU020 A2975
気圧 29.74 インチ
視程 6.2 マイル
わずか 2000 ft
露点温度 47 °F
湿度 69%
降水 0.14 インチ
積雪深 利用不可。
4:54 AM 6:23 PM
新月, 2% visible
METAR RJTT 271230Z 20009KT 9999 FEW020 BKN/// 14/08 Q1007 NOSIG RMK 1CU020 A2975

Get Severe Weather Alerts

Thanks for signing up!

Be on the lookout for a verification email in your inbox.

You'll start receiving the daily forecast at 8 AM.

×

10-Day Weather Forecast

No radar image for this location.
×

Almanac

天文

Apr. 27, 2017 入り
実時間
常用薄明
航海薄明
天文薄明
可視光の長さ
可照時間
Tomorrow will be .
, % of the Moon is Illuminated

今日の極値

Country Highs Country Lows

Community

WunderBlog® & News

Nearby

空気品質

  空気品質 大気質指数 汚染物質
Not available.

積雪深

Station Depth 高度

地震活動

Distance Mag. Time & Date
Minimum magnitude displayed is 2.5.

沿岸の水温

地名 気温

Stations

最寄りの気象観測所

観測所位置 温度 体感気温(寒さ) 露点温度 湿度 Precip. 高度 更新日時 タイプする